sensor_id;sensor_type;location;lat;lon;timestamp;P1;durP1;ratioP1;P2;durP2;ratioP2
29380;SDS011;16364;52.490;13.326;2023-07-28T00:01:02;1.60;;;1.50;;
29380;SDS011;16364;52.490;13.326;2023-07-28T00:03:27;1.63;;;1.53;;
29380;SDS011;16364;52.490;13.326;2023-07-28T00:05:53;1.70;;;1.60;;
29380;SDS011;16364;52.490;13.326;2023-07-28T00:08:18;2.17;;;1.93;;
29380;SDS011;16364;52.490;13.326;2023-07-28T00:10:43;3.00;;;1.90;;
29380;SDS011;16364;52.490;13.326;2023-07-28T00:13:08;2.30;;;1.70;;
29380;SDS011;16364;52.490;13.326;2023-07-28T00:15:34;2.33;;;2.10;;
29380;SDS011;16364;52.490;13.326;2023-07-28T00:17:59;2.57;;;2.10;;
29380;SDS011;16364;52.490;13.326;2023-07-28T00:20:27;2.30;;;2.20;;
29380;SDS011;16364;52.490;13.326;2023-07-28T00:22:53;2.77;;;2.57;;
29380;SDS011;16364;52.490;13.326;2023-07-28T00:25:18;3.30;;;3.00;;
29380;SDS011;16364;52.490;13.326;2023-07-28T00:27:43;5.30;;;3.13;;
29380;SDS011;16364;52.490;13.326;2023-07-28T00:30:09;2.93;;;2.70;;
29380;SDS011;16364;52.490;13.326;2023-07-28T00:32:35;3.77;;;3.47;;
29380;SDS011;16364;52.490;13.326;2023-07-28T00:35:00;3.80;;;3.40;;
29380;SDS011;16364;52.490;13.326;2023-07-28T00:37:25;3.30;;;3.00;;
29380;SDS011;16364;52.490;13.326;2023-07-28T00:39:50;3.87;;;3.57;;
29380;SDS011;16364;52.490;13.326;2023-07-28T00:42:15;3.60;;;3.40;;
29380;SDS011;16364;52.490;13.326;2023-07-28T00:44:41;4.10;;;3.80;;
29380;SDS011;16364;52.490;13.326;2023-07-28T00:47:06;3.07;;;2.83;;
29380;SDS011;16364;52.490;13.326;2023-07-28T00:49:31;3.37;;;3.17;;
29380;SDS011;16364;52.490;13.326;2023-07-28T00:51:56;4.37;;;3.00;;
29380;SDS011;16364;52.490;13.326;2023-07-28T00:54:22;3.17;;;2.97;;
29380;SDS011;16364;52.490;13.326;2023-07-28T00:56:48;3.00;;;2.80;;
29380;SDS011;16364;52.490;13.326;2023-07-28T00:59:14;2.80;;;2.60;;
29380;SDS011;16364;52.490;13.326;2023-07-28T01:01:39;2.80;;;2.60;;
29380;SDS011;16364;52.490;13.326;2023-07-28T01:04:04;3.00;;;2.80;;
29380;SDS011;16364;52.490;13.326;2023-07-28T01:06:33;2.43;;;2.17;;
29380;SDS011;16364;52.490;13.326;2023-07-28T01:09:01;2.70;;;2.33;;
29380;SDS011;16364;52.490;13.326;2023-07-28T01:11:28;7.30;;;2.83;;
29380;SDS011;16364;52.490;13.326;2023-07-28T01:13:53;2.53;;;2.33;;
29380;SDS011;16364;52.490;13.326;2023-07-28T01:16:19;2.30;;;2.10;;
29380;SDS011;16364;52.490;13.326;2023-07-28T01:18:44;2.37;;;2.17;;
29380;SDS011;16364;52.490;13.326;2023-07-28T01:21:11;2.47;;;1.97;;
29380;SDS011;16364;52.490;13.326;2023-07-28T01:23:48;2.27;;;1.97;;
29380;SDS011;16364;52.490;13.326;2023-07-28T01:26:16;2.00;;;1.90;;
29380;SDS011;16364;52.490;13.326;2023-07-28T01:28:43;3.93;;;2.47;;
29380;SDS011;16364;52.490;13.326;2023-07-28T01:31:08;2.70;;;2.50;;
29380;SDS011;16364;52.490;13.326;2023-07-28T01:33:34;3.23;;;2.70;;
29380;SDS011;16364;52.490;13.326;2023-07-28T01:35:59;4.57;;;2.10;;
29380;SDS011;16364;52.490;13.326;2023-07-28T01:38:28;2.10;;;1.90;;
29380;SDS011;16364;52.490;13.326;2023-07-28T01:40:53;2.27;;;2.07;;
29380;SDS011;16364;52.490;13.326;2023-07-28T01:43:19;2.80;;;2.60;;
29380;SDS011;16364;52.490;13.326;2023-07-28T01:45:44;2.53;;;2.10;;
29380;SDS011;16364;52.490;13.326;2023-07-28T01:48:09;3.10;;;2.67;;
29380;SDS011;16364;52.490;13.326;2023-07-28T01:50:35;2.60;;;2.40;;
29380;SDS011;16364;52.490;13.326;2023-07-28T01:53:00;2.60;;;2.20;;
29380;SDS011;16364;52.490;13.326;2023-07-28T01:55:26;2.83;;;2.63;;
29380;SDS011;16364;52.490;13.326;2023-07-28T01:57:58;3.80;;;2.67;;
29380;SDS011;16364;52.490;13.326;2023-07-28T02:00:24;4.60;;;2.83;;
29380;SDS011;16364;52.490;13.326;2023-07-28T02:02:49;5.50;;;3.50;;
29380;SDS011;16364;52.490;13.326;2023-07-28T02:05:15;8.90;;;3.70;;
29380;SDS011;16364;52.490;13.326;2023-07-28T02:07:40;5.47;;;3.43;;
29380;SDS011;16364;52.490;13.326;2023-07-28T02:10:05;4.27;;;3.60;;
29380;SDS011;16364;52.490;13.326;2023-07-28T02:12:31;4.43;;;3.40;;
29380;SDS011;16364;52.490;13.326;2023-07-28T02:14:56;5.17;;;3.30;;
29380;SDS011;16364;52.490;13.326;2023-07-28T02:17:21;5.37;;;4.37;;
29380;SDS011;16364;52.490;13.326;2023-07-28T02:19:46;5.03;;;4.50;;
29380;SDS011;16364;52.490;13.326;2023-07-28T02:22:12;4.77;;;4.27;;
29380;SDS011;16364;52.490;13.326;2023-07-28T02:24:37;5.00;;;4.50;;
29380;SDS011;16364;52.490;13.326;2023-07-28T02:27:02;5.57;;;4.33;;
29380;SDS011;16364;52.490;13.326;2023-07-28T02:29:28;4.60;;;4.20;;
29380;SDS011;16364;52.490;13.326;2023-07-28T02:31:53;7.10;;;4.40;;
29380;SDS011;16364;52.490;13.326;2023-07-28T02:34:18;6.50;;;5.07;;
29380;SDS011;16364;52.490;13.326;2023-07-28T02:36:43;5.07;;;4.43;;
29380;SDS011;16364;52.490;13.326;2023-07-28T02:39:09;5.40;;;4.27;;
29380;SDS011;16364;52.490;13.326;2023-07-28T02:41:34;6.30;;;5.23;;
29380;SDS011;16364;52.490;13.326;2023-07-28T02:43:59;5.33;;;4.83;;
29380;SDS011;16364;52.490;13.326;2023-07-28T02:46:24;8.00;;;5.80;;
29380;SDS011;16364;52.490;13.326;2023-07-28T02:48:51;9.57;;;4.83;;
29380;SDS011;16364;52.490;13.326;2023-07-28T02:51:16;8.00;;;5.00;;
29380;SDS011;16364;52.490;13.326;2023-07-28T02:53:41;8.30;;;4.90;;
29380;SDS011;16364;52.490;13.326;2023-07-28T02:56:06;6.60;;;4.87;;
29380;SDS011;16364;52.490;13.326;2023-07-28T02:58:31;8.70;;;5.50;;
29380;SDS011;16364;52.490;13.326;2023-07-28T03:00:57;8.43;;;5.40;;
29380;SDS011;16364;52.490;13.326;2023-07-28T03:03:22;14.93;;;5.87;;
29380;SDS011;16364;52.490;13.326;2023-07-28T03:05:47;6.10;;;5.03;;
29380;SDS011;16364;52.490;13.326;2023-07-28T03:08:16;7.07;;;5.10;;
29380;SDS011;16364;52.490;13.326;2023-07-28T03:10:41;7.33;;;5.60;;
29380;SDS011;16364;52.490;13.326;2023-07-28T03:13:06;10.17;;;5.40;;
29380;SDS011;16364;52.490;13.326;2023-07-28T03:15:32;6.70;;;5.30;;
29380;SDS011;16364;52.490;13.326;2023-07-28T03:17:57;6.67;;;5.07;;
29380;SDS011;16364;52.490;13.326;2023-07-28T03:20:22;6.17;;;5.57;;
29380;SDS011;16364;52.490;13.326;2023-07-28T03:22:47;6.80;;;5.30;;
29380;SDS011;16364;52.490;13.326;2023-07-28T03:25:13;6.00;;;5.40;;
29380;SDS011;16364;52.490;13.326;2023-07-28T03:27:38;6.33;;;5.10;;
29380;SDS011;16364;52.490;13.326;2023-07-28T03:30:03;10.23;;;5.60;;
29380;SDS011;16364;52.490;13.326;2023-07-28T03:32:31;6.67;;;5.20;;
29380;SDS011;16364;52.490;13.326;2023-07-28T03:34:56;6.77;;;4.80;;
29380;SDS011;16364;52.490;13.326;2023-07-28T03:37:22;13.50;;;6.40;;
29380;SDS011;16364;52.490;13.326;2023-07-28T03:39:47;5.50;;;4.73;;
29380;SDS011;16364;52.490;13.326;2023-07-28T03:42:13;7.30;;;5.57;;
29380;SDS011;16364;52.490;13.326;2023-07-28T03:44:39;11.80;;;7.50;;
29380;SDS011;16364;52.490;13.326;2023-07-28T03:47:06;11.23;;;5.40;;
29380;SDS011;16364;52.490;13.326;2023-07-28T03:49:31;10.80;;;6.40;;
29380;SDS011;16364;52.490;13.326;2023-07-28T03:51:57;7.87;;;6.30;;
29380;SDS011;16364;52.490;13.326;2023-07-28T03:54:23;7.43;;;6.40;;
29380;SDS011;16364;52.490;13.326;2023-07-28T03:56:48;10.40;;;6.60;;
29380;SDS011;16364;52.490;13.326;2023-07-28T03:59:13;9.47;;;6.10;;
29380;SDS011;16364;52.490;13.326;2023-07-28T04:01:38;11.60;;;6.50;;
29380;SDS011;16364;52.490;13.326;2023-07-28T04:04:04;9.20;;;7.00;;
29380;SDS011;16364;52.490;13.326;2023-07-28T04:06:45;17.60;;;7.03;;
29380;SDS011;16364;52.490;13.326;2023-07-28T04:09:11;9.90;;;6.63;;
29380;SDS011;16364;52.490;13.326;2023-07-28T04:11:36;8.37;;;6.10;;
29380;SDS011;16364;52.490;13.326;2023-07-28T04:14:02;11.30;;;6.23;;
29380;SDS011;16364;52.490;13.326;2023-07-28T04:16:27;10.87;;;6.93;;
29380;SDS011;16364;52.490;13.326;2023-07-28T04:18:52;14.70;;;6.97;;
29380;SDS011;16364;52.490;13.326;2023-07-28T04:21:17;8.67;;;6.60;;
29380;SDS011;16364;52.490;13.326;2023-07-28T04:23:43;9.27;;;6.80;;
29380;SDS011;16364;52.490;13.326;2023-07-28T04:26:08;8.20;;;6.97;;
29380;SDS011;16364;52.490;13.326;2023-07-28T04:28:33;15.17;;;8.03;;
29380;SDS011;16364;52.490;13.326;2023-07-28T04:30:59;7.60;;;6.30;;
29380;SDS011;16364;52.490;13.326;2023-07-28T04:33:24;10.70;;;7.83;;
29380;SDS011;16364;52.490;13.326;2023-07-28T04:35:50;10.60;;;7.70;;
29380;SDS011;16364;52.490;13.326;2023-07-28T04:38:15;10.37;;;7.40;;
29380;SDS011;16364;52.490;13.326;2023-07-28T04:40:40;10.40;;;6.93;;
29380;SDS011;16364;52.490;13.326;2023-07-28T04:43:05;10.20;;;7.73;;
29380;SDS011;16364;52.490;13.326;2023-07-28T04:45:31;10.80;;;6.80;;
29380;SDS011;16364;52.490;13.326;2023-07-28T04:47:56;9.53;;;7.57;;
29380;SDS011;16364;52.490;13.326;2023-07-28T04:50:21;7.17;;;6.23;;
29380;SDS011;16364;52.490;13.326;2023-07-28T04:52:46;8.23;;;6.67;;
29380;SDS011;16364;52.490;13.326;2023-07-28T04:55:11;7.97;;;7.17;;
29380;SDS011;16364;52.490;13.326;2023-07-28T04:57:37;7.80;;;6.83;;
29380;SDS011;16364;52.490;13.326;2023-07-28T05:00:02;6.83;;;6.23;;
29380;SDS011;16364;52.490;13.326;2023-07-28T05:02:29;10.63;;;7.27;;
29380;SDS011;16364;52.490;13.326;2023-07-28T05:04:54;7.73;;;6.90;;
29380;SDS011;16364;52.490;13.326;2023-07-28T05:07:19;7.93;;;7.13;;
29380;SDS011;16364;52.490;13.326;2023-07-28T05:09:45;9.00;;;6.70;;
29380;SDS011;16364;52.490;13.326;2023-07-28T05:12:10;9.30;;;7.30;;
29380;SDS011;16364;52.490;13.326;2023-07-28T05:14:35;9.20;;;7.30;;
29380;SDS011;16364;52.490;13.326;2023-07-28T05:17:01;11.23;;;7.90;;
29380;SDS011;16364;52.490;13.326;2023-07-28T05:19:26;8.57;;;7.40;;
29380;SDS011;16364;52.490;13.326;2023-07-28T05:21:51;7.63;;;6.70;;
29380;SDS011;16364;52.490;13.326;2023-07-28T05:24:16;9.50;;;6.70;;
29380;SDS011;16364;52.490;13.326;2023-07-28T05:26:42;6.83;;;6.23;;
29380;SDS011;16364;52.490;13.326;2023-07-28T05:29:08;7.03;;;6.30;;
29380;SDS011;16364;52.490;13.326;2023-07-28T05:31:33;6.07;;;5.47;;
29380;SDS011;16364;52.490;13.326;2023-07-28T05:33:58;8.67;;;6.60;;
29380;SDS011;16364;52.490;13.326;2023-07-28T05:36:23;8.10;;;6.40;;
29380;SDS011;16364;52.490;13.326;2023-07-28T05:38:49;7.10;;;6.40;;
29380;SDS011;16364;52.490;13.326;2023-07-28T05:41:14;6.87;;;6.37;;
29380;SDS011;16364;52.490;13.326;2023-07-28T05:43:40;11.43;;;7.10;;
29380;SDS011;16364;52.490;13.326;2023-07-28T05:46:05;6.90;;;6.30;;
29380;SDS011;16364;52.490;13.326;2023-07-28T05:48:30;6.00;;;5.50;;
29380;SDS011;16364;52.490;13.326;2023-07-28T05:50:55;6.23;;;5.63;;
29380;SDS011;16364;52.490;13.326;2023-07-28T05:53:21;7.23;;;6.33;;
29380;SDS011;16364;52.490;13.326;2023-07-28T05:55:49;5.50;;;5.00;;
29380;SDS011;16364;52.490;13.326;2023-07-28T05:58:14;8.37;;;6.60;;
29380;SDS011;16364;52.490;13.326;2023-07-28T06:00:39;6.97;;;5.60;;
29380;SDS011;16364;52.490;13.326;2023-07-28T06:03:06;9.53;;;7.13;;
29380;SDS011;16364;52.490;13.326;2023-07-28T06:05:31;7.67;;;5.83;;
29380;SDS011;16364;52.490;13.326;2023-07-28T06:07:56;6.63;;;5.93;;
29380;SDS011;16364;52.490;13.326;2023-07-28T06:10:21;8.37;;;7.57;;
29380;SDS011;16364;52.490;13.326;2023-07-28T06:12:46;6.17;;;5.57;;
29380;SDS011;16364;52.490;13.326;2023-07-28T06:15:12;7.63;;;5.73;;
29380;SDS011;16364;52.490;13.326;2023-07-28T06:17:37;5.60;;;4.87;;
29380;SDS011;16364;52.490;13.326;2023-07-28T06:20:02;6.73;;;6.03;;
29380;SDS011;16364;52.490;13.326;2023-07-28T06:22:28;7.10;;;6.40;;
29380;SDS011;16364;52.490;13.326;2023-07-28T06:24:53;6.43;;;5.90;;
29380;SDS011;16364;52.490;13.326;2023-07-28T06:27:18;6.80;;;6.00;;
29380;SDS011;16364;52.490;13.326;2023-07-28T06:29:44;6.53;;;5.93;;
29380;SDS011;16364;52.490;13.326;2023-07-28T06:32:09;6.70;;;6.07;;
29380;SDS011;16364;52.490;13.326;2023-07-28T06:34:34;5.47;;;4.83;;
29380;SDS011;16364;52.490;13.326;2023-07-28T06:37:00;6.03;;;5.43;;
29380;SDS011;16364;52.490;13.326;2023-07-28T06:39:25;6.47;;;5.67;;
29380;SDS011;16364;52.490;13.326;2023-07-28T06:41:50;6.03;;;5.53;;
29380;SDS011;16364;52.490;13.326;2023-07-28T06:44:15;8.10;;;6.27;;
29380;SDS011;16364;52.490;13.326;2023-07-28T06:46:41;6.17;;;5.57;;
29380;SDS011;16364;52.490;13.326;2023-07-28T06:49:06;5.57;;;5.07;;
29380;SDS011;16364;52.490;13.326;2023-07-28T06:51:31;5.00;;;4.37;;
29380;SDS011;16364;52.490;13.326;2023-07-28T06:53:57;4.80;;;4.20;;
29380;SDS011;16364;52.490;13.326;2023-07-28T06:56:22;4.60;;;4.30;;
29380;SDS011;16364;52.490;13.326;2023-07-28T06:58:47;4.17;;;3.77;;
29380;SDS011;16364;52.490;13.326;2023-07-28T07:01:13;4.63;;;4.23;;
29380;SDS011;16364;52.490;13.326;2023-07-28T07:03:38;3.77;;;3.47;;
29380;SDS011;16364;52.490;13.326;2023-07-28T07:06:03;4.23;;;3.80;;
29380;SDS011;16364;52.490;13.326;2023-07-28T07:08:28;5.00;;;4.50;;
29380;SDS011;16364;52.490;13.326;2023-07-28T07:10:54;4.33;;;4.03;;
29380;SDS011;16364;52.490;13.326;2023-07-28T07:13:19;4.20;;;3.67;;
29380;SDS011;16364;52.490;13.326;2023-07-28T07:15:44;3.53;;;3.23;;
29380;SDS011;16364;52.490;13.326;2023-07-28T07:18:10;4.10;;;3.80;;
29380;SDS011;16364;52.490;13.326;2023-07-28T07:20:36;3.83;;;3.53;;
29380;SDS011;16364;52.490;13.326;2023-07-28T07:23:01;3.70;;;3.40;;
29380;SDS011;16364;52.490;13.326;2023-07-28T07:25:26;2.97;;;2.80;;
29380;SDS011;16364;52.490;13.326;2023-07-28T07:27:52;3.70;;;2.83;;
29380;SDS011;16364;52.490;13.326;2023-07-28T07:30:17;2.83;;;2.50;;
29380;SDS011;16364;52.490;13.326;2023-07-28T07:32:42;3.63;;;2.80;;
29380;SDS011;16364;52.490;13.326;2023-07-28T07:35:07;3.10;;;2.90;;
29380;SDS011;16364;52.490;13.326;2023-07-28T07:37:33;2.80;;;2.40;;
29380;SDS011;16364;52.490;13.326;2023-07-28T07:39:59;2.63;;;2.43;;
29380;SDS011;16364;52.490;13.326;2023-07-28T07:42:26;3.70;;;2.20;;
29380;SDS011;16364;52.490;13.326;2023-07-28T07:44:51;2.43;;;2.23;;
29380;SDS011;16364;52.490;13.326;2023-07-28T07:47:16;2.10;;;2.00;;
29380;SDS011;16364;52.490;13.326;2023-07-28T07:49:42;4.40;;;1.80;;
29380;SDS011;16364;52.490;13.326;2023-07-28T07:52:08;2.00;;;1.90;;
29380;SDS011;16364;52.490;13.326;2023-07-28T07:54:36;1.60;;;1.50;;
29380;SDS011;16364;52.490;13.326;2023-07-28T07:57:01;1.87;;;1.33;;
29380;SDS011;16364;52.490;13.326;2023-07-28T07:59:27;1.80;;;1.70;;
29380;SDS011;16364;52.490;13.326;2023-07-28T08:01:55;1.50;;;1.40;;
29380;SDS011;16364;52.490;13.326;2023-07-28T08:04:21;2.70;;;1.40;;
29380;SDS011;16364;52.490;13.326;2023-07-28T08:06:46;6.20;;;1.67;;
29380;SDS011;16364;52.490;13.326;2023-07-28T08:09:11;2.13;;;2.03;;
29380;SDS011;16364;52.490;13.326;2023-07-28T08:11:36;1.40;;;1.30;;
29380;SDS011;16364;52.490;13.326;2023-07-28T08:14:02;3.40;;;1.70;;
29380;SDS011;16364;52.490;13.326;2023-07-28T08:16:27;1.60;;;1.50;;
29380;SDS011;16364;52.490;13.326;2023-07-28T08:18:52;2.40;;;1.40;;
29380;SDS011;16364;52.490;13.326;2023-07-28T08:21:18;1.53;;;1.40;;
29380;SDS011;16364;52.490;13.326;2023-07-28T08:23:43;1.63;;;1.50;;
29380;SDS011;16364;52.490;13.326;2023-07-28T08:26:08;1.40;;;1.30;;
29380;SDS011;16364;52.490;13.326;2023-07-28T08:28:33;1.57;;;1.47;;
29380;SDS011;16364;52.490;13.326;2023-07-28T08:30:59;1.93;;;1.50;;
29380;SDS011;16364;52.490;13.326;2023-07-28T08:33:24;1.77;;;1.10;;
29380;SDS011;16364;52.490;13.326;2023-07-28T08:35:49;1.40;;;1.30;;
29380;SDS011;16364;52.490;13.326;2023-07-28T08:38:15;1.80;;;1.70;;
29380;SDS011;16364;52.490;13.326;2023-07-28T08:40:40;1.47;;;1.37;;
29380;SDS011;16364;52.490;13.326;2023-07-28T08:43:05;1.80;;;1.70;;
29380;SDS011;16364;52.490;13.326;2023-07-28T08:45:31;2.47;;;1.33;;
29380;SDS011;16364;52.490;13.326;2023-07-28T08:47:56;2.10;;;1.50;;
29380;SDS011;16364;52.490;13.326;2023-07-28T08:50:21;1.20;;;1.10;;
29380;SDS011;16364;52.490;13.326;2023-07-28T08:52:47;1.80;;;1.60;;
29380;SDS011;16364;52.490;13.326;2023-07-28T08:55:15;1.20;;;1.10;;
29380;SDS011;16364;52.490;13.326;2023-07-28T08:57:40;1.53;;;1.37;;
29380;SDS011;16364;52.490;13.326;2023-07-28T09:00:09;1.23;;;1.13;;
29380;SDS011;16364;52.490;13.326;2023-07-28T09:02:36;2.20;;;1.40;;
29380;SDS011;16364;52.490;13.326;2023-07-28T09:05:02;1.20;;;1.10;;
29380;SDS011;16364;52.490;13.326;2023-07-28T09:07:33;1.47;;;1.37;;
29380;SDS011;16364;52.490;13.326;2023-07-28T09:09:59;1.77;;;1.40;;
29380;SDS011;16364;52.490;13.326;2023-07-28T09:12:24;1.70;;;1.60;;
29380;SDS011;16364;52.490;13.326;2023-07-28T09:14:50;1.40;;;1.30;;
29380;SDS011;16364;52.490;13.326;2023-07-28T09:17:20;2.17;;;1.30;;
29380;SDS011;16364;52.490;13.326;2023-07-28T09:19:49;1.70;;;1.60;;
29380;SDS011;16364;52.490;13.326;2023-07-28T09:22:14;1.77;;;1.40;;
29380;SDS011;16364;52.490;13.326;2023-07-28T09:24:40;1.77;;;1.27;;
29380;SDS011;16364;52.490;13.326;2023-07-28T09:27:05;2.90;;;1.20;;
29380;SDS011;16364;52.490;13.326;2023-07-28T09:29:30;1.60;;;1.50;;
29380;SDS011;16364;52.490;13.326;2023-07-28T09:32:05;1.40;;;1.30;;
29380;SDS011;16364;52.490;13.326;2023-07-28T09:34:30;2.90;;;1.47;;
29380;SDS011;16364;52.490;13.326;2023-07-28T09:36:57;1.47;;;1.37;;
29380;SDS011;16364;52.490;13.326;2023-07-28T09:39:23;1.90;;;1.73;;
29380;SDS011;16364;52.490;13.326;2023-07-28T09:41:48;1.80;;;1.43;;
29380;SDS011;16364;52.490;13.326;2023-07-28T09:44:14;1.43;;;1.33;;
29380;SDS011;16364;52.490;13.326;2023-07-28T09:49:21;2.23;;;1.60;;
29380;SDS011;16364;52.490;13.326;2023-07-28T09:51:47;1.70;;;1.40;;
29380;SDS011;16364;52.490;13.326;2023-07-28T09:54:17;1.57;;;1.47;;
29380;SDS011;16364;52.490;13.326;2023-07-28T09:56:48;1.50;;;1.40;;
29380;SDS011;16364;52.490;13.326;2023-07-28T09:59:13;3.57;;;1.40;;
29380;SDS011;16364;52.490;13.326;2023-07-28T10:01:42;1.53;;;1.43;;
29380;SDS011;16364;52.490;13.326;2023-07-28T10:04:09;1.80;;;1.70;;
29380;SDS011;16364;52.490;13.326;2023-07-28T10:06:35;1.60;;;1.50;;
29380;SDS011;16364;52.490;13.326;2023-07-28T10:09:02;2.83;;;1.93;;
29380;SDS011;16364;52.490;13.326;2023-07-28T10:11:28;1.50;;;1.40;;
29380;SDS011;16364;52.490;13.326;2023-07-28T10:13:54;1.60;;;1.50;;
29380;SDS011;16364;52.490;13.326;2023-07-28T10:16:19;2.07;;;1.40;;
29380;SDS011;16364;52.490;13.326;2023-07-28T10:18:52;1.70;;;1.60;;
29380;SDS011;16364;52.490;13.326;2023-07-28T10:21:18;1.50;;;1.40;;
29380;SDS011;16364;52.490;13.326;2023-07-28T10:23:43;1.53;;;1.43;;
29380;SDS011;16364;52.490;13.326;2023-07-28T10:26:09;1.80;;;1.70;;
29380;SDS011;16364;52.490;13.326;2023-07-28T10:28:38;5.33;;;1.80;;
29380;SDS011;16364;52.490;13.326;2023-07-28T10:31:06;1.93;;;1.73;;
29380;SDS011;16364;52.490;13.326;2023-07-28T10:33:33;2.17;;;1.97;;
29380;SDS011;16364;52.490;13.326;2023-07-28T10:36:43;1.80;;;1.70;;
29380;SDS011;16364;52.490;13.326;2023-07-28T10:38:44;2.00;;;1.90;;
29380;SDS011;16364;52.490;13.326;2023-07-28T10:41:15;2.50;;;2.30;;
29380;SDS011;16364;52.490;13.326;2023-07-28T10:43:42;2.47;;;2.30;;
29380;SDS011;16364;52.490;13.326;2023-07-28T10:46:08;2.63;;;2.30;;
29380;SDS011;16364;52.490;13.326;2023-07-28T10:48:37;2.83;;;2.63;;
29380;SDS011;16364;52.490;13.326;2023-07-28T10:51:02;2.90;;;2.70;;
29380;SDS011;16364;52.490;13.326;2023-07-28T10:53:28;2.20;;;2.10;;
29380;SDS011;16364;52.490;13.326;2023-07-28T10:55:53;2.40;;;2.23;;
29380;SDS011;16364;52.490;13.326;2023-07-28T10:58:19;2.27;;;2.17;;
29380;SDS011;16364;52.490;13.326;2023-07-28T11:00:45;2.37;;;2.17;;
29380;SDS011;16364;52.490;13.326;2023-07-28T11:03:10;1.93;;;1.83;;
29380;SDS011;16364;52.490;13.326;2023-07-28T11:05:37;1.80;;;1.70;;
29380;SDS011;16364;52.490;13.326;2023-07-28T11:08:02;3.80;;;2.00;;
29380;SDS011;16364;52.490;13.326;2023-07-28T11:10:28;3.13;;;2.10;;
29380;SDS011;16364;52.490;13.326;2023-07-28T11:12:56;4.40;;;1.63;;
29380;SDS011;16364;52.490;13.326;2023-07-28T11:15:22;1.97;;;1.87;;
29380;SDS011;16364;52.490;13.326;2023-07-28T11:17:49;1.50;;;1.40;;
29380;SDS011;16364;52.490;13.326;2023-07-28T11:22:41;2.07;;;1.70;;
29380;SDS011;16364;52.490;13.326;2023-07-28T11:25:06;1.97;;;1.80;;
29380;SDS011;16364;52.490;13.326;2023-07-28T11:27:34;2.17;;;1.87;;
29380;SDS011;16364;52.490;13.326;2023-07-28T11:30:00;1.93;;;1.53;;
29380;SDS011;16364;52.490;13.326;2023-07-28T11:32:25;1.93;;;1.63;;
29380;SDS011;16364;52.490;13.326;2023-07-28T11:34:51;1.60;;;1.50;;
29380;SDS011;16364;52.490;13.326;2023-07-28T11:37:16;2.50;;;1.40;;
29380;SDS011;16364;52.490;13.326;2023-07-28T11:39:41;1.70;;;1.60;;
29380;SDS011;16364;52.490;13.326;2023-07-28T11:42:07;2.03;;;1.93;;
29380;SDS011;16364;52.490;13.326;2023-07-28T11:44:32;2.00;;;1.90;;
29380;SDS011;16364;52.490;13.326;2023-07-28T11:46:58;2.20;;;1.83;;
29380;SDS011;16364;52.490;13.326;2023-07-28T11:49:23;2.70;;;2.50;;
29380;SDS011;16364;52.490;13.326;2023-07-28T11:51:49;1.80;;;1.70;;
29380;SDS011;16364;52.490;13.326;2023-07-28T11:54:16;2.90;;;2.10;;
29380;SDS011;16364;52.490;13.326;2023-07-28T11:56:42;3.23;;;2.40;;
29380;SDS011;16364;52.490;13.326;2023-07-28T11:59:08;3.47;;;3.17;;
29380;SDS011;16364;52.490;13.326;2023-07-28T12:01:33;2.33;;;2.13;;
29380;SDS011;16364;52.490;13.326;2023-07-28T12:03:59;1.80;;;1.70;;
29380;SDS011;16364;52.490;13.326;2023-07-28T12:06:25;2.60;;;1.80;;
29380;SDS011;16364;52.490;13.326;2023-07-28T12:08:50;2.27;;;2.07;;
29380;SDS011;16364;52.490;13.326;2023-07-28T12:11:16;2.63;;;2.40;;
29380;SDS011;16364;52.490;13.326;2023-07-28T12:13:51;1.80;;;1.70;;
29380;SDS011;16364;52.490;13.326;2023-07-28T12:16:38;9.40;;;7.07;;
29380;SDS011;16364;52.490;13.326;2023-07-28T12:19:05;1.93;;;1.73;;
29380;SDS011;16364;52.490;13.326;2023-07-28T12:21:30;2.97;;;1.70;;
29380;SDS011;16364;52.490;13.326;2023-07-28T12:23:56;1.87;;;1.40;;
29380;SDS011;16364;52.490;13.326;2023-07-28T12:26:21;1.77;;;1.33;;
29380;SDS011;16364;52.490;13.326;2023-07-28T12:28:46;2.23;;;1.50;;
29380;SDS011;16364;52.490;13.326;2023-07-28T12:31:12;2.50;;;1.70;;
29380;SDS011;16364;52.490;13.326;2023-07-28T12:33:37;1.90;;;1.70;;
29380;SDS011;16364;52.490;13.326;2023-07-28T12:36:02;1.50;;;1.30;;
29380;SDS011;16364;52.490;13.326;2023-07-28T12:38:28;1.73;;;1.63;;
29380;SDS011;16364;52.490;13.326;2023-07-28T12:40:53;1.67;;;1.57;;
29380;SDS011;16364;52.490;13.326;2023-07-28T12:43:20;1.70;;;1.33;;
29380;SDS011;16364;52.490;13.326;2023-07-28T12:45:45;2.50;;;1.77;;
29380;SDS011;16364;52.490;13.326;2023-07-28T12:48:10;2.60;;;1.90;;
29380;SDS011;16364;52.490;13.326;2023-07-28T12:50:35;2.07;;;1.97;;
29380;SDS011;16364;52.490;13.326;2023-07-28T12:53:01;1.60;;;1.50;;
29380;SDS011;16364;52.490;13.326;2023-07-28T12:55:26;1.67;;;1.57;;
29380;SDS011;16364;52.490;13.326;2023-07-28T12:57:52;1.53;;;1.43;;
29380;SDS011;16364;52.490;13.326;2023-07-28T13:00:18;1.57;;;1.40;;
29380;SDS011;16364;52.490;13.326;2023-07-28T13:02:43;1.50;;;1.40;;
29380;SDS011;16364;52.490;13.326;2023-07-28T13:05:10;1.80;;;1.70;;
29380;SDS011;16364;52.490;13.326;2023-07-28T13:07:36;1.97;;;1.60;;
29380;SDS011;16364;52.490;13.326;2023-07-28T13:10:01;1.50;;;1.40;;
29380;SDS011;16364;52.490;13.326;2023-07-28T13:12:28;1.73;;;1.60;;
29380;SDS011;16364;52.490;13.326;2023-07-28T13:14:53;1.73;;;1.63;;
29380;SDS011;16364;52.490;13.326;2023-07-28T13:17:18;2.23;;;2.07;;
29380;SDS011;16364;52.490;13.326;2023-07-28T13:19:44;1.83;;;1.73;;
29380;SDS011;16364;52.490;13.326;2023-07-28T13:22:09;1.80;;;1.70;;
29380;SDS011;16364;52.490;13.326;2023-07-28T13:24:34;2.00;;;1.63;;
29380;SDS011;16364;52.490;13.326;2023-07-28T13:26:59;2.10;;;1.90;;
29380;SDS011;16364;52.490;13.326;2023-07-28T13:29:25;2.20;;;2.10;;
29380;SDS011;16364;52.490;13.326;2023-07-28T13:31:50;2.00;;;1.90;;
29380;SDS011;16364;52.490;13.326;2023-07-28T13:34:15;3.53;;;1.60;;
29380;SDS011;16364;52.490;13.326;2023-07-28T13:36:40;2.00;;;1.80;;
29380;SDS011;16364;52.490;13.326;2023-07-28T13:39:08;1.90;;;1.70;;
29380;SDS011;16364;52.490;13.326;2023-07-28T13:41:33;1.77;;;1.67;;
29380;SDS011;16364;52.490;13.326;2023-07-28T13:43:58;1.97;;;1.70;;
29380;SDS011;16364;52.490;13.326;2023-07-28T13:46:24;1.70;;;1.60;;
29380;SDS011;16364;52.490;13.326;2023-07-28T13:48:49;1.67;;;1.57;;
29380;SDS011;16364;52.490;13.326;2023-07-28T13:51:14;1.57;;;1.47;;
29380;SDS011;16364;52.490;13.326;2023-07-28T13:53:39;1.57;;;1.47;;
29380;SDS011;16364;52.490;13.326;2023-07-28T13:56:04;2.20;;;1.90;;
29380;SDS011;16364;52.490;13.326;2023-07-28T13:58:30;1.67;;;1.57;;
29380;SDS011;16364;52.490;13.326;2023-07-28T14:00:55;1.90;;;1.80;;
29380;SDS011;16364;52.490;13.326;2023-07-28T14:03:20;1.67;;;1.57;;
29380;SDS011;16364;52.490;13.326;2023-07-28T14:05:46;2.00;;;1.80;;
29380;SDS011;16364;52.490;13.326;2023-07-28T14:08:11;2.10;;;1.90;;
29380;SDS011;16364;52.490;13.326;2023-07-28T14:10:37;2.27;;;1.50;;
29380;SDS011;16364;52.490;13.326;2023-07-28T14:13:03;1.70;;;1.60;;
29380;SDS011;16364;52.490;13.326;2023-07-28T14:15:28;1.83;;;1.73;;
29380;SDS011;16364;52.490;13.326;2023-07-28T14:17:53;2.00;;;1.73;;
29380;SDS011;16364;52.490;13.326;2023-07-28T14:20:19;1.77;;;1.67;;
29380;SDS011;16364;52.490;13.326;2023-07-28T14:22:44;1.43;;;1.33;;
29380;SDS011;16364;52.490;13.326;2023-07-28T14:25:09;1.33;;;1.23;;
29380;SDS011;16364;52.490;13.326;2023-07-28T14:27:34;1.67;;;1.57;;
29380;SDS011;16364;52.490;13.326;2023-07-28T14:30:00;1.73;;;1.30;;